Time;durP1;ratioP1;P1;durP2;ratioP2;P2;SDS_P1;SDS_P2;PMS_P1;PMS_P2;Temp;Humidity;BMP_temperature;BMP_pressure;BME280_temperature;BME280_humidity;BME280_pressure;Samples;Min_cycle;Max_cycle;Signal;HPM_P1;HPM_P2
2022/07/26 00:01:43;;;;;;;6.93;5.82;;;18.90;99.90;;;;;;4990055;28;20037;-84
2022/07/26 00:04:11;;;;;;;6.80;5.88;;;18.90;99.90;;;;;;5008955;28;20026;-83
2022/07/26 00:06:37;;;;;;;7.82;5.80;;;19.00;99.90;;;;;;5011478;28;20036;-85
2022/07/26 00:09:03;;;;;;;7.43;5.85;;;19.10;99.90;;;;;;4993984;28;20046;-83
2022/07/26 00:11:32;;;;;;;6.88;5.90;;;19.10;99.90;;;;;;4991852;28;20034;-84
2022/07/26 00:14:05;;;;;;;6.18;5.57;;;19.20;99.90;;;;;;4993426;28;20042;-83
2022/07/26 00:16:31;;;;;;;8.95;5.93;;;19.20;99.90;;;;;;4993127;28;20073;-83
2022/07/26 00:18:57;;;;;;;7.35;5.53;;;19.30;99.90;;;;;;5009649;28;20054;-83
2022/07/26 00:21:23;;;;;;;8.15;5.50;;;19.30;99.90;;;;;;5015461;28;20031;-83
2022/07/26 00:23:49;;;;;;;8.15;5.90;;;19.30;99.90;;;;;;5018531;28;20022;-82
2022/07/26 00:26:15;;;;;;;5.57;4.97;;;19.30;99.90;;;;;;5018822;28;20054;-81
2022/07/26 00:28:40;;;;;;;7.05;5.45;;;19.30;99.90;;;;;;5018894;28;20046;-81
2022/07/26 00:31:07;;;;;;;7.40;5.43;;;19.30;99.90;;;;;;5017795;28;20121;-84
2022/07/26 00:33:33;;;;;;;8.38;5.25;;;19.30;99.90;;;;;;5010572;28;20037;-84
2022/07/26 00:35:58;;;;;;;8.57;5.40;;;19.40;99.90;;;;;;4989102;28;20026;-83
2022/07/26 00:38:24;;;;;;;6.35;4.60;;;19.40;99.90;;;;;;4987573;28;20030;-82
2022/07/26 00:40:50;;;;;;;7.90;5.47;;;19.40;99.90;;;;;;5006810;28;20103;-83
2022/07/26 00:43:16;;;;;;;10.68;5.70;;;19.40;99.90;;;;;;4989287;28;20125;-83
2022/07/26 00:45:41;;;;;;;7.03;4.88;;;19.40;99.90;;;;;;4989506;28;20027;-84
2022/07/26 00:48:07;;;;;;;7.10;5.15;;;19.40;99.90;;;;;;4988463;28;20046;-84
2022/07/26 00:50:33;;;;;;;6.13;4.70;;;19.40;99.90;;;;;;4986935;28;20065;-81
2022/07/26 00:52:59;;;;;;;6.22;4.72;;;19.30;99.90;;;;;;4990162;28;20042;-83
2022/07/26 00:55:25;;;;;;;5.82;4.63;;;19.30;99.90;;;;;;5004215;28;20062;-83
2022/07/26 00:57:50;;;;;;;6.88;4.68;;;19.30;99.90;;;;;;4987374;28;20026;-83
2022/07/26 01:00:20;;;;;;;4.60;4.20;;;19.30;99.90;;;;;;5003541;28;20495;-82
2022/07/26 01:02:46;;;;;;;6.30;4.90;;;19.40;99.90;;;;;;4986890;28;20033;-82
2022/07/26 01:05:11;;;;;;;6.25;4.85;;;19.40;99.90;;;;;;5003923;28;20023;-84
2022/07/26 01:07:38;;;;;;;5.43;4.72;;;19.30;99.90;;;;;;4987113;28;20031;-81
2022/07/26 01:10:07;;;;;;;6.15;4.65;;;19.40;99.90;;;;;;5006381;28;20467;-83
2022/07/26 01:12:33;;;;;;;5.22;4.07;;;19.50;99.90;;;;;;5004650;28;20030;-82
2022/07/26 01:14:59;;;;;;;4.90;4.40;;;19.50;99.90;;;;;;5004558;28;20014;-80
2022/07/26 01:17:25;;;;;;;5.68;4.72;;;19.50;99.90;;;;;;5018491;28;20057;-80
2022/07/26 01:19:50;;;;;;;5.65;4.47;;;19.50;99.90;;;;;;5017995;28;20046;-81
2022/07/26 01:22:16;;;;;;;5.47;4.60;;;19.50;99.90;;;;;;5017582;28;20042;-80
2022/07/26 01:24:42;;;;;;;5.13;4.57;;;19.50;99.90;;;;;;5016397;28;20029;-81
2022/07/26 01:27:07;;;;;;;4.50;4.10;;;19.60;99.90;;;;;;5016781;28;20026;-81
2022/07/26 01:29:33;;;;;;;4.70;4.30;;;19.50;99.90;;;;;;5016292;28;20030;-81
2022/07/26 01:32:00;;;;;;;4.43;3.90;;;19.50;99.90;;;;;;5007530;28;20040;-82
2022/07/26 01:34:25;;;;;;;5.90;3.90;;;19.50;99.90;;;;;;5003945;28;20018;-82
2022/07/26 01:36:53;;;;;;;4.32;3.92;;;19.50;99.90;;;;;;5003584;28;20685;-81
2022/07/26 01:39:18;;;;;;;5.07;4.57;;;19.50;99.90;;;;;;5003531;28;20049;-82
2022/07/26 01:41:44;;;;;;;5.63;3.80;;;19.50;99.90;;;;;;4990072;28;20077;-83
2022/07/26 01:44:10;;;;;;;4.70;4.00;;;19.50;99.90;;;;;;4986231;28;20276;-82
2022/07/26 01:46:36;;;;;;;4.03;3.53;;;19.50;99.90;;;;;;5002026;28;20102;-82
2022/07/26 01:49:03;;;;;;;3.58;3.28;;;19.60;99.90;;;;;;5004207;28;20030;-83
2022/07/26 01:51:28;;;;;;;3.58;3.28;;;19.70;99.90;;;;;;5001949;28;20010;-83
2022/07/26 01:53:54;;;;;;;4.47;2.83;;;19.70;99.90;;;;;;4983200;28;20172;-81
2022/07/26 01:56:20;;;;;;;3.47;3.10;;;19.80;99.90;;;;;;5010364;28;20069;-81
2022/07/26 01:58:46;;;;;;;3.38;3.08;;;19.90;99.90;;;;;;5014197;28;20057;-82
2022/07/26 02:01:11;;;;;;;3.80;3.03;;;19.90;99.90;;;;;;5002896;28;20054;-81
2022/07/26 02:03:37;;;;;;;3.67;3.38;;;19.70;99.90;;;;;;5001332;28;20457;-81
2022/07/26 02:06:05;;;;;;;3.83;3.53;;;19.60;99.90;;;;;;4984219;28;20061;-82
2022/07/26 02:08:30;;;;;;;3.47;3.17;;;19.60;99.90;;;;;;4987461;28;20030;-81
2022/07/26 02:10:59;;;;;;;3.10;2.80;;;19.70;99.90;;;;;;5007752;28;20045;-83
2022/07/26 02:13:28;;;;;;;3.10;2.90;;;19.70;99.90;;;;;;5008600;28;20361;-82
2022/07/26 02:15:57;;;;;;;13.02;3.88;;;19.80;99.90;;;;;;4990011;28;20026;-84
2022/07/26 02:18:24;;;;;;;2.88;2.63;;;19.80;99.90;;;;;;5003402;28;20097;-82
2022/07/26 02:20:49;;;;;;;2.85;2.65;;;19.90;99.90;;;;;;5001183;28;20102;-83
2022/07/26 02:23:15;;;;;;;3.28;2.95;;;20.00;99.90;;;;;;5032614;23;20405;-78
2022/07/26 02:25:41;;;;;;;4.80;2.72;;;20.10;99.90;;;;;;5029720;28;20036;-78
2022/07/26 02:28:07;;;;;;;3.08;2.80;;;20.10;99.90;;;;;;5034207;28;20026;-79
2022/07/26 02:30:33;;;;;;;3.30;3.00;;;20.10;99.90;;;;;;5036229;28;20061;-78
2022/07/26 02:32:58;;;;;;;4.07;3.28;;;20.10;99.90;;;;;;5022056;28;20034;-78
2022/07/26 02:35:24;;;;;;;3.30;3.00;;;20.20;99.90;;;;;;5014595;28;20033;-79
2022/07/26 02:37:50;;;;;;;3.67;3.05;;;20.20;99.90;;;;;;5015937;28;20017;-78
2022/07/26 02:40:15;;;;;;;3.20;2.90;;;20.20;99.90;;;;;;5015962;28;20025;-79
2022/07/26 02:42:41;;;;;;;3.40;3.10;;;20.20;99.90;;;;;;4998454;28;20018;-78
2022/07/26 02:45:07;;;;;;;3.35;3.05;;;20.10;99.90;;;;;;5015337;28;20379;-79
2022/07/26 02:47:33;;;;;;;3.80;2.70;;;20.10;99.90;;;;;;5015010;28;20049;-79
2022/07/26 02:49:59;;;;;;;2.95;2.55;;;20.00;99.90;;;;;;5014654;28;20025;-78
2022/07/26 02:52:24;;;;;;;3.10;2.90;;;20.00;99.90;;;;;;4995732;28;20026;-78
2022/07/26 02:54:50;;;;;;;3.50;3.00;;;20.00;99.90;;;;;;5011795;28;20053;-80
2022/07/26 02:57:16;;;;;;;3.63;3.25;;;20.00;99.90;;;;;;5012704;28;20433;-78
2022/07/26 02:59:41;;;;;;;3.60;3.30;;;20.00;99.90;;;;;;5012220;28;20367;-78
2022/07/26 03:02:07;;;;;;;2.83;2.63;;;20.10;99.90;;;;;;5013197;28;20030;-79
2022/07/26 03:04:33;;;;;;;2.70;2.50;;;20.20;99.90;;;;;;5013805;28;20465;-79
2022/07/26 03:06:59;;;;;;;2.95;2.65;;;20.30;99.90;;;;;;5013697;28;20034;-78
2022/07/26 03:09:24;;;;;;;2.40;2.20;;;20.40;99.90;;;;;;5013932;28;20025;-79
2022/07/26 03:11:50;;;;;;;4.10;2.97;;;20.50;99.90;;;;;;5014655;28;20474;-78
2022/07/26 03:14:16;;;;;;;3.25;2.95;;;20.50;99.90;;;;;;5013009;28;20026;-78
2022/07/26 03:16:41;;;;;;;3.63;2.75;;;20.50;99.90;;;;;;5009244;28;20061;-79
2022/07/26 03:19:07;;;;;;;3.40;2.80;;;20.50;99.90;;;;;;5014411;28;20069;-80
2022/07/26 03:21:33;;;;;;;2.78;2.58;;;20.50;99.90;;;;;;5015022;28;20029;-79
2022/07/26 03:23:58;;;;;;;4.10;2.28;;;20.50;99.90;;;;;;5015418;28;20034;-80
2022/07/26 03:26:24;;;;;;;2.75;2.55;;;20.50;99.90;;;;;;5013988;28;20045;-77
2022/07/26 03:28:50;;;;;;;2.55;2.35;;;20.50;99.90;;;;;;5014473;28;20487;-79
2022/07/26 03:31:15;;;;;;;3.50;2.67;;;20.40;99.90;;;;;;5014611;28;20030;-78
2022/07/26 03:33:41;;;;;;;3.60;2.78;;;20.40;99.90;;;;;;5014359;28;20033;-79
2022/07/26 03:36:10;;;;;;;3.25;2.92;;;20.50;99.90;;;;;;5014189;28;20030;-79
2022/07/26 03:38:36;;;;;;;3.55;3.10;;;20.40;99.90;;;;;;5024652;28;20032;-78
2022/07/26 03:41:02;;;;;;;3.10;2.80;;;20.30;99.90;;;;;;5018047;28;20120;-77
2022/07/26 03:43:27;;;;;;;3.58;2.65;;;20.30;99.90;;;;;;5020428;28;20053;-79
2022/07/26 03:45:53;;;;;;;4.57;2.90;;;20.30;99.90;;;;;;5029021;28;20076;-79
2022/07/26 03:48:19;;;;;;;3.97;3.22;;;20.20;99.90;;;;;;4999593;28;20109;-79
2022/07/26 03:50:44;;;;;;;5.47;2.97;;;20.10;99.90;;;;;;5000149;28;20045;-80
2022/07/26 03:53:10;;;;;;;4.95;3.13;;;20.20;99.90;;;;;;5017100;28;20030;-78
2022/07/26 03:58:21;;;;;;;3.72;2.55;;;20.30;99.90;;;;;;5018554;28;20033;-80
2022/07/26 04:00:46;;;;;;;3.38;2.90;;;20.20;99.90;;;;;;5018556;28;20022;-79
2022/07/26 04:03:12;;;;;;;4.85;3.20;;;20.10;99.90;;;;;;5018469;28;20030;-78
2022/07/26 04:05:38;;;;;;;3.47;3.10;;;20.10;99.90;;;;;;5019053;28;20454;-78
2022/07/26 04:08:04;;;;;;;3.28;2.97;;;20.00;99.90;;;;;;4998975;28;20089;-81
2022/07/26 04:10:29;;;;;;;3.63;2.97;;;20.10;99.90;;;;;;5023251;28;20363;-80
2022/07/26 04:12:55;;;;;;;4.60;3.22;;;20.10;99.90;;;;;;5000488;28;20026;-80
2022/07/26 04:15:21;;;;;;;6.28;3.83;;;20.20;99.90;;;;;;5000172;28;20029;-80
2022/07/26 04:17:47;;;;;;;3.85;3.25;;;20.20;99.90;;;;;;4999904;28;20030;-80
2022/07/26 04:20:13;;;;;;;3.60;2.95;;;20.20;99.90;;;;;;5000184;28;20153;-80
2022/07/26 04:22:40;;;;;;;3.88;3.03;;;20.30;99.90;;;;;;5017235;28;20034;-79
2022/07/26 04:25:08;;;;;;;4.32;2.90;;;20.40;99.90;;;;;;5018419;28;20537;-79
2022/07/26 04:27:34;;;;;;;3.85;3.05;;;20.40;99.90;;;;;;4999608;28;20101;-80
2022/07/26 04:30:00;;;;;;;4.80;3.45;;;20.40;99.90;;;;;;5018117;28;20057;-80
2022/07/26 04:32:26;;;;;;;3.85;3.53;;;20.40;99.90;;;;;;4997899;28;20065;-80
2022/07/26 04:34:53;;;;;;;5.18;3.17;;;20.40;99.90;;;;;;5015494;28;20029;-79
2022/07/26 04:37:18;;;;;;;5.22;3.33;;;20.50;99.90;;;;;;5018000;28;20124;-80
2022/07/26 04:39:44;;;;;;;4.97;3.50;;;20.40;99.90;;;;;;5017748;28;20355;-80
2022/07/26 04:42:10;;;;;;;4.55;3.80;;;20.50;99.90;;;;;;5018251;28;20032;-80
2022/07/26 04:44:37;;;;;;;3.72;3.38;;;20.40;99.90;;;;;;5026313;28;20095;-80
2022/07/26 04:47:03;;;;;;;3.42;3.13;;;20.40;99.90;;;;;;5036157;28;20022;-80
2022/07/26 04:49:29;;;;;;;4.03;3.13;;;20.40;99.90;;;;;;5032894;28;20108;-80
2022/07/26 04:51:54;;;;;;;4.45;3.72;;;20.40;99.90;;;;;;5016276;28;20049;-81
2022/07/26 04:54:21;;;;;;;3.88;3.28;;;20.50;99.90;;;;;;5012656;28;20033;-80
2022/07/26 04:56:50;;;;;;;3.65;3.35;;;20.50;99.90;;;;;;5015547;28;20447;-78
2022/07/26 04:59:16;;;;;;;3.58;3.15;;;20.50;99.90;;;;;;5013532;28;20054;-77
2022/07/26 05:01:43;;;;;;;4.53;3.45;;;20.40;99.90;;;;;;5014183;28;20049;-77
2022/07/26 05:04:09;;;;;;;4.13;3.58;;;20.40;99.90;;;;;;5013912;28;20061;-77
2022/07/26 05:06:34;;;;;;;5.18;3.33;;;20.40;99.90;;;;;;5015266;28;20033;-77
2022/07/26 05:09:00;;;;;;;5.85;3.47;;;20.40;99.90;;;;;;5004913;28;20566;-77
2022/07/26 05:11:26;;;;;;;3.35;2.72;;;20.50;99.90;;;;;;4996421;28;20031;-78
2022/07/26 05:13:51;;;;;;;4.22;3.47;;;20.60;99.90;;;;;;5024229;28;20029;-78
2022/07/26 05:16:17;;;;;;;3.47;3.17;;;20.80;99.90;;;;;;5032606;28;20566;-77
2022/07/26 05:18:43;;;;;;;5.70;3.47;;;20.80;99.90;;;;;;5032557;28;20069;-81
2022/07/26 05:21:08;;;;;;;3.65;2.92;;;20.80;99.90;;;;;;5021996;28;20029;-78
2022/07/26 05:23:34;;;;;;;4.30;2.92;;;20.80;99.90;;;;;;5036293;28;20041;-78
2022/07/26 05:26:00;;;;;;;3.25;2.97;;;20.80;99.90;;;;;;5027221;28;20060;-77
2022/07/26 05:28:25;;;;;;;4.07;2.70;;;20.70;99.90;;;;;;5019192;28;20381;-77
2022/07/26 05:30:51;;;;;;;6.80;3.67;;;20.70;99.90;;;;;;5016633;28;20025;-76
2022/07/26 05:33:17;;;;;;;4.05;2.70;;;20.70;99.90;;;;;;5000407;28;20048;-77
2022/07/26 05:35:42;;;;;;;4.30;2.97;;;20.70;99.90;;;;;;5016129;28;20040;-78
2022/07/26 05:38:08;;;;;;;3.70;2.60;;;20.60;99.90;;;;;;5020695;28;20025;-78
2022/07/26 05:40:33;;;;;;;3.03;2.75;;;20.60;99.90;;;;;;5011826;28;20120;-77
2022/07/26 05:42:59;;;;;;;4.32;3.00;;;20.60;99.90;;;;;;5015797;28;20105;-78
2022/07/26 05:45:25;;;;;;;3.97;2.80;;;20.70;99.90;;;;;;5016961;28;20057;-78
2022/07/26 05:47:52;;;;;;;3.35;2.97;;;20.70;99.90;;;;;;5014649;28;20022;-77
2022/07/26 05:50:18;;;;;;;5.65;2.88;;;20.60;99.90;;;;;;5016626;28;20104;-78
2022/07/26 05:52:44;;;;;;;4.38;2.85;;;20.60;99.90;;;;;;4995545;28;20514;-78
2022/07/26 05:55:10;;;;;;;8.57;2.97;;;20.70;99.90;;;;;;5013517;28;20089;-77
2022/07/26 05:57:36;;;;;;;3.20;2.47;;;20.70;99.90;;;;;;5014094;28;20049;-75
2022/07/26 06:00:03;;;;;;;3.33;2.42;;;20.60;99.90;;;;;;5016717;28;20052;-76
2022/07/26 06:02:28;;;;;;;3.35;2.88;;;20.60;99.90;;;;;;5001118;28;20038;-77
2022/07/26 06:04:54;;;;;;;3.45;2.78;;;20.60;99.90;;;;;;5021179;28;20024;-76
2022/07/26 06:07:20;;;;;;;3.08;2.75;;;20.50;99.90;;;;;;5026050;28;20396;-77
2022/07/26 06:09:45;;;;;;;6.88;3.17;;;20.50;99.90;;;;;;5005717;28;20034;-78
2022/07/26 06:12:11;;;;;;;3.42;2.67;;;20.50;99.90;;;;;;5012848;28;20105;-76
2022/07/26 06:14:37;;;;;;;4.53;2.75;;;20.50;99.90;;;;;;5013373;28;20022;-78
2022/07/26 06:17:05;;;;;;;2.85;2.65;;;20.50;99.90;;;;;;4996361;28;20129;-77
2022/07/26 06:19:31;;;;;;;3.03;2.30;;;20.60;99.90;;;;;;5014233;28;20129;-79
2022/07/26 06:21:56;;;;;;;3.10;2.30;;;20.70;99.90;;;;;;5013844;28;20077;-78
2022/07/26 06:24:22;;;;;;;4.15;2.63;;;20.80;99.90;;;;;;4996345;28;20125;-78
2022/07/26 06:26:50;;;;;;;4.35;2.92;;;20.80;99.90;;;;;;5013805;28;20052;-78
2022/07/26 06:29:16;;;;;;;3.63;2.97;;;20.90;99.90;;;;;;4996137;28;20096;-78
2022/07/26 06:31:42;;;;;;;8.82;3.78;;;20.90;99.90;;;;;;5009176;28;20041;-79
2022/07/26 06:34:07;;;;;;;4.55;2.83;;;20.80;99.90;;;;;;4995525;28;20034;-79
2022/07/26 06:36:33;;;;;;;3.78;3.25;;;20.70;99.90;;;;;;5013281;28;20026;-79
2022/07/26 06:38:59;;;;;;;4.63;3.20;;;20.70;99.90;;;;;;5010444;28;20340;-81
2022/07/26 06:41:25;;;;;;;4.07;2.92;;;20.70;99.90;;;;;;5003364;28;20396;-80
2022/07/26 06:43:51;;;;;;;7.45;3.58;;;20.70;99.90;;;;;;4994258;28;20041;-80
2022/07/26 06:46:19;;;;;;;7.32;3.15;;;20.60;99.90;;;;;;4999096;28;20065;-79
2022/07/26 06:48:45;;;;;;;4.05;3.15;;;20.60;99.90;;;;;;5020079;28;20042;-80
2022/07/26 06:51:11;;;;;;;4.18;3.10;;;20.50;99.90;;;;;;5008126;28;20126;-79
2022/07/26 06:53:37;;;;;;;7.65;3.47;;;20.50;99.90;;;;;;5017321;28;20029;-79
2022/07/26 06:56:02;;;;;;;4.35;3.50;;;20.50;99.90;;;;;;5024525;28;20105;-80
2022/07/26 06:58:28;;;;;;;3.80;3.05;;;20.50;99.90;;;;;;5000092;28;20103;-79
2022/07/26 07:00:54;;;;;;;4.82;3.13;;;20.50;99.90;;;;;;5016096;28;20081;-80
2022/07/26 07:03:20;;;;;;;4.18;3.10;;;20.50;99.90;;;;;;5015269;28;20038;-80
2022/07/26 07:05:46;;;;;;;4.82;3.58;;;20.50;99.90;;;;;;5019049;28;20032;-79
2022/07/26 07:08:12;;;;;;;7.95;4.10;;;20.50;99.90;;;;;;5007524;28;20053;-79
2022/07/26 07:10:38;;;;;;;5.05;3.47;;;20.70;99.90;;;;;;5003410;28;20042;-80
2022/07/26 07:13:04;;;;;;;4.53;3.47;;;20.80;99.90;;;;;;5011397;28;20038;-78
2022/07/26 07:15:30;;;;;;;6.38;3.88;;;20.80;99.90;;;;;;5013361;28;20022;-79
2022/07/26 07:17:55;;;;;;;11.48;5.03;;;20.80;99.90;;;;;;5016420;28;20048;-79
2022/07/26 07:20:21;;;;;;;4.00;3.53;;;20.80;99.90;;;;;;5017941;28;20371;-79
2022/07/26 07:22:47;;;;;;;6.43;4.10;;;20.80;99.90;;;;;;4997107;28;20017;-79
2022/07/26 07:25:12;;;;;;;7.75;3.80;;;20.80;99.90;;;;;;5029841;28;20013;-79
2022/07/26 07:27:38;;;;;;;5.60;3.70;;;20.70;99.90;;;;;;5025451;28;20110;-80
2022/07/26 07:30:05;;;;;;;5.80;4.45;;;20.70;99.90;;;;;;5024114;28;20072;-78
2022/07/26 07:32:31;;;;;;;11.55;3.63;;;20.50;99.90;;;;;;5009561;28;20026;-79
2022/07/26 07:34:57;;;;;;;8.70;3.50;;;20.40;99.90;;;;;;5024707;28;20073;-79
2022/07/26 07:37:22;;;;;;;6.05;3.63;;;20.40;99.90;;;;;;5025339;28;20033;-79
2022/07/26 07:39:48;;;;;;;4.28;3.30;;;20.30;99.90;;;;;;5022838;28;20115;-79
2022/07/26 07:42:14;;;;;;;5.60;3.13;;;20.00;99.90;;;;;;5005812;28;20049;-79
2022/07/26 07:44:40;;;;;;;4.53;3.20;;;19.80;99.90;;;;;;5030844;28;20102;-79
2022/07/26 07:47:07;;;;;;;4.93;3.17;;;19.60;99.90;;;;;;5042622;28;20026;-79
2022/07/26 07:49:33;;;;;;;3.63;2.70;;;19.50;99.90;;;;;;5038824;28;20013;-79
2022/07/26 07:52:00;;;;;;;3.75;2.53;;;19.50;99.90;;;;;;5019272;28;20029;-79
2022/07/26 07:54:25;;;;;;;4.22;2.72;;;19.50;99.90;;;;;;5025185;28;20033;-78
2022/07/26 07:56:53;;;;;;;2.50;2.30;;;19.50;99.90;;;;;;5021088;28;20101;-78
2022/07/26 07:59:19;;;;;;;4.25;2.80;;;19.60;99.90;;;;;;5019559;28;20026;-78
2022/07/26 08:01:45;;;;;;;2.85;2.42;;;19.70;99.90;;;;;;5019695;28;20034;-77
2022/07/26 08:04:10;;;;;;;3.30;1.90;;;19.80;99.90;;;;;;5022023;28;20022;-78
2022/07/26 08:06:36;;;;;;;3.63;2.33;;;19.90;99.90;;;;;;5020620;28;20034;-78
2022/07/26 08:09:03;;;;;;;3.38;2.67;;;20.10;99.90;;;;;;5009412;28;20089;-79
2022/07/26 08:11:28;;;;;;;2.50;2.28;;;20.40;99.90;;;;;;5012745;28;20036;-78
2022/07/26 08:13:54;;;;;;;3.22;1.88;;;20.60;99.90;;;;;;5022724;28;20113;-77
2022/07/26 08:16:20;;;;;;;3.88;2.28;;;20.90;99.90;;;;;;5030972;28;20482;-80
2022/07/26 08:18:45;;;;;;;4.55;2.38;;;21.10;99.90;;;;;;5018971;28;20073;-82
2022/07/26 08:21:11;;;;;;;3.42;2.08;;;21.20;99.50;;;;;;5002767;28;20050;-83
2022/07/26 08:23:37;;;;;;;4.18;2.03;;;21.20;99.90;;;;;;5036943;23;20066;-83
2022/07/26 08:26:03;;;;;;;5.15;1.70;;;21.20;99.90;;;;;;4981514;28;20047;-83
2022/07/26 08:28:29;;;;;;;4.10;2.28;;;21.10;99.60;;;;;;4973742;28;20095;-83
2022/07/26 08:30:58;;;;;;;5.07;2.50;;;21.00;99.50;;;;;;4975011;28;20046;-82
2022/07/26 08:33:23;;;;;;;4.03;2.45;;;20.70;99.90;;;;;;4973446;28;20031;-80
2022/07/26 08:35:49;;;;;;;4.78;2.65;;;20.50;99.90;;;;;;4972621;28;20031;-80
2022/07/26 08:38:21;;;;;;;3.85;2.50;;;20.40;99.90;;;;;;4973643;28;20028;-81
2022/07/26 08:40:46;;;;;;;4.80;2.20;;;20.20;99.90;;;;;;4972995;29;20082;-80
2022/07/26 08:43:13;;;;;;;2.55;2.25;;;20.10;99.90;;;;;;4975157;28;20031;-82
2022/07/26 08:45:38;;;;;;;4.50;2.58;;;20.10;99.90;;;;;;4957707;29;20031;-83
2022/07/26 08:48:04;;;;;;;3.25;2.17;;;20.00;99.90;;;;;;4973677;28;20095;-82
2022/07/26 08:50:32;;;;;;;2.08;1.83;;;20.00;99.90;;;;;;4975743;29;20159;-83
2022/07/26 08:53:05;;;;;;;4.43;2.20;;;20.10;99.90;;;;;;4967594;28;20143;-84
2022/07/26 08:55:31;;;;;;;2.40;1.98;;;20.30;99.90;;;;;;4983263;28;20018;-85
2022/07/26 08:57:57;;;;;;;2.60;1.83;;;20.40;99.90;;;;;;4990057;28;20077;-81
2022/07/26 09:00:25;;;;;;;2.90;2.13;;;20.60;99.90;;;;;;4978322;28;20129;-85
2022/07/26 09:02:52;;;;;;;3.15;1.77;;;20.70;99.90;;;;;;4980017;28;20023;-85
2022/07/26 09:05:19;;;;;;;2.45;2.13;;;20.80;99.90;;;;;;4981383;28;20031;-85
2022/07/26 09:07:46;;;;;;;2.50;2.30;;;20.80;99.90;;;;;;4983373;28;20027;-82
2022/07/26 09:10:14;;;;;;;2.55;2.30;;;20.80;99.90;;;;;;4983348;28;20098;-83
2022/07/26 09:12:41;;;;;;;3.78;2.50;;;20.70;99.90;;;;;;4983518;28;20054;-84
2022/07/26 09:15:18;;;;;;;2.10;1.90;;;20.70;99.90;;;;;;4983695;28;20018;-85
2022/07/26 09:17:46;;;;;;;3.15;1.60;;;20.80;99.90;;;;;;4983452;28;20058;-81
2022/07/26 09:20:15;;;;;;;2.80;1.80;;;21.00;99.90;;;;;;5000255;28;20029;-85
2022/07/26 09:23:10;;;;;;;3.42;2.00;;;21.00;99.90;;;;;;4982851;28;20038;-84
2022/07/26 09:25:42;;;;;;;3.60;2.40;;;21.20;99.90;;;;;;4980416;28;20022;-84
2022/07/26 09:28:22;;;;;;;2.95;2.38;;;21.40;99.60;;;;;;4989851;28;20360;-87
2022/07/26 09:31:03;;;;;;;1.98;1.73;;;21.60;99.20;;;;;;4990077;28;20034;-83
2022/07/26 09:33:53;;;;;;;2.67;1.85;;;21.70;99.20;;;;;;5009557;28;20038;-84
2022/07/26 09:36:18;;;;;;;2.88;1.95;;;22.00;98.30;;;;;;4992714;28;20034;-83
2022/07/26 09:38:48;;;;;;;2.03;1.80;;;22.20;96.70;;;;;;4984224;28;20091;-82
2022/07/26 09:41:22;;;;;;;2.70;1.83;;;22.40;96.70;;;;;;4983742;28;20042;-83
2022/07/26 09:43:49;;;;;;;2.67;1.75;;;22.60;96.10;;;;;;4975260;28;20114;-82
2022/07/26 09:46:16;;;;;;;2.17;1.73;;;22.70;95.30;;;;;;4969207;28;20083;-83
2022/07/26 09:48:42;;;;;;;2.10;1.90;;;22.80;95.00;;;;;;4970324;29;20031;-83
2022/07/26 09:51:08;;;;;;;2.45;2.05;;;22.80;94.50;;;;;;4970583;29;20019;-84
2022/07/26 09:53:43;;;;;;;1.70;1.38;;;22.80;94.20;;;;;;4980583;28;20023;-82
2022/07/26 09:56:09;;;;;;;4.28;2.13;;;22.80;94.40;;;;;;4990584;28;20102;-82
2022/07/26 09:58:35;;;;;;;1.92;1.77;;;22.80;94.50;;;;;;4972667;28;20031;-84
2022/07/26 10:01:02;;;;;;;2.15;1.90;;;22.90;94.20;;;;;;4983988;28;20535;-82
2022/07/26 10:03:33;;;;;;;2.17;1.90;;;23.30;93.40;;;;;;4980990;28;20460;-81
2022/07/26 10:05:59;;;;;;;2.78;2.00;;;23.60;92.50;;;;;;4985909;28;20023;-82
2022/07/26 10:08:26;;;;;;;2.67;2.05;;;24.00;91.80;;;;;;4972754;28;20014;-84
2022/07/26 10:11:02;;;;;;;2.35;1.70;;;24.40;90.60;;;;;;4984670;28;20031;-82
2022/07/26 10:13:29;;;;;;;1.80;1.70;;;24.80;88.50;;;;;;4968532;28;20018;-82
2022/07/26 10:15:58;;;;;;;7.95;2.25;;;25.20;85.60;;;;;;4987616;28;20030;-81
2022/07/26 10:18:36;;;;;;;3.95;2.28;;;25.60;79.10;;;;;;4968881;28;20394;-82
2022/07/26 10:21:25;;;;;;;2.25;1.90;;;25.60;81.50;;;;;;4987190;28;20061;-82
2022/07/26 10:24:24;;;;;;;3.15;1.98;;;25.70;78.50;;;;;;4977130;28;20053;-82
2022/07/26 10:27:39;;;;;;;2.05;1.63;;;26.00;76.70;;;;;;5009200;28;20022;-84
2022/07/26 10:30:21;;;;;;;1.83;1.67;;;26.20;75.40;;;;;;4992023;28;20030;-83
2022/07/26 10:33:00;;;;;;;;;;;26.70;76.10;;;;;;4993180;28;20085;-83
2022/07/26 10:35:40;;;;;;;1.70;1.50;;;27.40;71.80;;;;;;4993714;28;19905;-84
2022/07/26 10:38:22;;;;;;;1.30;1.10;;;27.70;70.80;;;;;;4990999;28;20069;-84
2022/07/26 10:41:07;;;;;;;2.53;2.00;;;27.80;68.60;;;;;;4981382;28;20018;-83
2022/07/26 10:43:34;;;;;;;2.03;1.55;;;28.00;66.70;;;;;;4990700;28;20037;-82
2022/07/26 10:46:15;;;;;;;1.60;1.50;;;28.10;65.90;;;;;;4991305;28;20015;-83
2022/07/26 10:49:07;;;;;;;3.15;1.90;;;28.10;64.40;;;;;;4989618;28;20050;-84
2022/07/26 10:51:36;;;;;;;3.83;1.95;;;27.80;61.50;;;;;;4988568;28;20038;-84
2022/07/26 10:54:03;;;;;;;2.25;1.80;;;27.50;64.00;;;;;;4994659;28;20090;-83
2022/07/26 10:56:29;;;;;;;3.13;1.42;;;27.40;64.60;;;;;;4979269;28;20031;-84
2022/07/26 10:58:56;;;;;;;2.65;1.90;;;27.60;64.60;;;;;;4978693;28;20041;-84
2022/07/26 11:01:30;;;;;;;2.30;2.15;;;27.70;63.90;;;;;;4978186;28;20014;-83
2022/07/26 11:03:57;;;;;;;3.33;1.95;;;27.30;64.80;;;;;;4978225;28;20058;-84
2022/07/26 11:06:27;;;;;;;2.83;2.10;;;26.90;65.40;;;;;;4994824;28;20070;-84
2022/07/26 11:08:54;;;;;;;2.28;1.55;;;26.80;66.00;;;;;;4973607;28;20058;-85
2022/07/26 11:11:32;;;;;;;2.28;1.60;;;26.90;64.90;;;;;;4988272;28;20047;-84
2022/07/26 11:14:09;;;;;;;2.28;2.10;;;27.00;64.10;;;;;;4991226;28;20058;-85
2022/07/26 11:16:49;;;;;;;2.47;1.67;;;26.90;63.50;;;;;;4974545;28;20011;-84
2022/07/26 11:19:23;;;;;;;3.63;2.05;;;27.00;63.90;;;;;;4990960;28;20018;-84
2022/07/26 11:21:58;;;;;;;1.88;1.58;;;27.00;63.90;;;;;;4973545;28;20029;-84
2022/07/26 11:24:25;;;;;;;2.22;1.50;;;26.90;64.90;;;;;;4972331;28;20035;-84
2022/07/26 11:26:51;;;;;;;1.90;1.70;;;26.90;65.30;;;;;;4969667;29;20035;-85
2022/07/26 11:29:37;;;;;;;3.47;1.67;;;27.00;65.70;;;;;;4954242;29;20023;-85
2022/07/26 11:32:04;;;;;;;2.83;1.80;;;27.30;65.20;;;;;;4971020;28;20094;-85
2022/07/26 11:34:33;;;;;;;1.73;1.48;;;27.50;64.00;;;;;;4952802;29;20027;-85
2022/07/26 11:37:03;;;;;;;2.20;2.00;;;27.50;62.50;;;;;;4970232;29;20104;-84
2022/07/26 11:39:32;;;;;;;3.20;1.60;;;27.40;61.80;;;;;;4988868;28;20066;-84
2022/07/26 11:42:11;;;;;;;2.15;1.58;;;27.30;61.20;;;;;;4990879;28;20078;-83
2022/07/26 11:44:42;;;;;;;3.90;1.73;;;27.40;61.60;;;;;;4989517;28;20023;-84
2022/07/26 11:47:14;;;;;;;1.70;1.60;;;27.70;62.20;;;;;;4990564;28;20030;-84
2022/07/26 11:49:40;;;;;;;1.40;1.30;;;27.90;60.80;;;;;;4989460;28;20027;-84
2022/07/26 11:52:06;;;;;;;3.33;1.80;;;27.90;61.90;;;;;;4989431;28;20034;-84
2022/07/26 11:54:44;;;;;;;1.80;1.70;;;27.90;61.60;;;;;;4970190;28;20027;-84
2022/07/26 11:57:10;;;;;;;3.10;1.65;;;27.70;63.80;;;;;;4972844;29;20019;-83
2022/07/26 11:59:37;;;;;;;2.65;1.70;;;27.30;65.10;;;;;;4972008;28;20007;-84
2022/07/26 12:02:07;;;;;;;1.77;1.67;;;26.90;66.40;;;;;;4953566;28;20031;-85
2022/07/26 12:04:37;;;;;;;1.58;1.48;;;26.40;67.90;;;;;;4959308;28;20062;-84
2022/07/26 12:07:11;;;;;;;4.70;1.63;;;26.00;69.60;;;;;;4975100;28;20093;-82
2022/07/26 12:09:40;;;;;;;2.55;1.83;;;25.90;70.60;;;;;;4995326;28;20027;-84
2022/07/26 12:12:18;;;;;;;3.55;1.95;;;25.70;71.10;;;;;;4989270;28;20057;-82
2022/07/26 12:14:58;;;;;;;1.83;1.70;;;25.60;72.40;;;;;;4976945;28;20099;-82
2022/07/26 12:17:24;;;;;;;3.00;1.55;;;25.40;72.80;;;;;;4990265;28;20034;-85
2022/07/26 12:19:50;;;;;;;2.08;1.67;;;25.40;73.00;;;;;;4975721;28;20027;-82
2022/07/26 12:22:20;;;;;;;3.05;2.05;;;;;;;;;;4976208;28;20034;-84
2022/07/26 12:24:52;;;;;;;2.63;1.50;;;25.30;73.10;;;;;;4994206;28;20033;-83
2022/07/26 12:27:23;;;;;;;1.80;1.42;;;25.50;73.80;;;;;;4994257;28;20106;-84
2022/07/26 12:30:01;;;;;;;1.90;1.70;;;25.80;73.30;;;;;;4976274;28;20019;-83
2022/07/26 12:32:32;;;;;;;1.60;1.50;;;25.90;72.20;;;;;;4993861;28;20038;-82
2022/07/26 12:35:00;;;;;;;1.67;1.58;;;26.00;71.60;;;;;;4973462;29;20023;-82
2022/07/26 12:37:31;;;;;;;2.88;1.90;;;26.20;71.40;;;;;;4975762;28;20032;-83
2022/07/26 12:40:12;;;;;;;1.98;1.70;;;26.30;70.20;;;;;;4991640;28;20023;-84
2022/07/26 12:42:51;;;;;;;2.78;1.60;;;26.40;70.70;;;;;;4975964;28;20011;-86
2022/07/26 12:45:39;;;;;;;1.85;1.70;;;26.70;70.20;;;;;;4975499;29;20082;-84
2022/07/26 12:48:11;;;;;;;1.58;1.48;;;27.10;69.00;;;;;;4995157;28;20027;-84
2022/07/26 12:50:37;;;;;;;1.58;1.48;;;27.10;68.40;;;;;;4989582;28;20043;-84
2022/07/26 12:53:07;;;;;;;2.33;1.60;;;27.20;68.00;;;;;;4992087;28;20050;-85
2022/07/26 12:55:34;;;;;;;1.50;1.40;;;27.20;67.70;;;;;;4993625;28;20025;-83